sensor_id;sensor_type;location;lat;lon;timestamp;P1;durP1;ratioP1;P2;durP2;ratioP2
16820;SDS011;8527;49.740;6.604;2023-01-10T00:00:20;2.92;;;1.70;;
16820;SDS011;8527;49.740;6.604;2023-01-10T00:05:22;3.28;;;1.27;;
16820;SDS011;8527;49.740;6.604;2023-01-10T00:10:20;5.00;;;1.60;;
16820;SDS011;8527;49.740;6.604;2023-01-10T00:15:19;3.30;;;1.45;;
16820;SDS011;8527;49.740;6.604;2023-01-10T00:20:17;1.50;;;0.77;;
16820;SDS011;8527;49.740;6.604;2023-01-10T00:25:18;2.55;;;1.20;;
16820;SDS011;8527;49.740;6.604;2023-01-10T00:30:17;3.15;;;1.10;;
16820;SDS011;8527;49.740;6.604;2023-01-10T00:35:17;6.80;;;1.40;;
16820;SDS011;8527;49.740;6.604;2023-01-10T00:40:23;4.30;;;1.85;;
16820;SDS011;8527;49.740;6.604;2023-01-10T00:45:25;2.83;;;0.80;;
16820;SDS011;8527;49.740;6.604;2023-01-10T00:50:23;1.38;;;0.65;;
16820;SDS011;8527;49.740;6.604;2023-01-10T00:55:28;4.35;;;0.90;;
16820;SDS011;8527;49.740;6.604;2023-01-10T01:00:29;5.55;;;1.35;;
16820;SDS011;8527;49.740;6.604;2023-01-10T01:05:27;3.60;;;0.90;;
16820;SDS011;8527;49.740;6.604;2023-01-10T01:10:30;4.65;;;2.05;;
16820;SDS011;8527;49.740;6.604;2023-01-10T01:15:29;12.98;;;4.25;;
16820;SDS011;8527;49.740;6.604;2023-01-10T01:20:31;2.80;;;0.90;;
16820;SDS011;8527;49.740;6.604;2023-01-10T01:25:33;2.28;;;1.30;;
16820;SDS011;8527;49.740;6.604;2023-01-10T01:30:32;3.22;;;0.82;;
16820;SDS011;8527;49.740;6.604;2023-01-10T01:35:30;1.30;;;0.80;;
16820;SDS011;8527;49.740;6.604;2023-01-10T01:40:29;5.47;;;1.10;;
16820;SDS011;8527;49.740;6.604;2023-01-10T01:45:37;3.42;;;1.00;;
16820;SDS011;8527;49.740;6.604;2023-01-10T01:50:38;0.80;;;0.75;;
16820;SDS011;8527;49.740;6.604;2023-01-10T01:55:43;2.28;;;1.10;;
16820;SDS011;8527;49.740;6.604;2023-01-10T02:00:46;4.00;;;1.35;;
16820;SDS011;8527;49.740;6.604;2023-01-10T02:05:54;2.60;;;1.00;;
16820;SDS011;8527;49.740;6.604;2023-01-10T02:10:53;3.75;;;1.23;;
16820;SDS011;8527;49.740;6.604;2023-01-10T02:16:05;4.13;;;1.10;;
16820;SDS011;8527;49.740;6.604;2023-01-10T02:21:17;2.13;;;1.45;;
16820;SDS011;8527;49.740;6.604;2023-01-10T02:26:38;6.05;;;1.77;;
16820;SDS011;8527;49.740;6.604;2023-01-10T02:32:08;6.80;;;1.90;;
16820;SDS011;8527;49.740;6.604;2023-01-10T02:37:20;11.40;;;2.17;;
16820;SDS011;8527;49.740;6.604;2023-01-10T02:42:31;9.13;;;2.38;;
16820;SDS011;8527;49.740;6.604;2023-01-10T02:47:39;7.73;;;1.93;;
16820;SDS011;8527;49.740;6.604;2023-01-10T02:52:42;8.60;;;3.30;;
16820;SDS011;8527;49.740;6.604;2023-01-10T02:57:51;5.38;;;2.28;;
16820;SDS011;8527;49.740;6.604;2023-01-10T03:03:08;12.27;;;2.97;;
16820;SDS011;8527;49.740;6.604;2023-01-10T03:08:18;8.80;;;1.90;;
16820;SDS011;8527;49.740;6.604;2023-01-10T03:13:29;5.13;;;1.98;;
16820;SDS011;8527;49.740;6.604;2023-01-10T03:18:35;6.50;;;1.80;;
16820;SDS011;8527;49.740;6.604;2023-01-10T03:23:41;9.27;;;2.13;;
16820;SDS011;8527;49.740;6.604;2023-01-10T03:28:43;7.22;;;1.98;;
16820;SDS011;8527;49.740;6.604;2023-01-10T03:33:52;13.98;;;3.10;;
16820;SDS011;8527;49.740;6.604;2023-01-10T03:38:55;17.98;;;2.67;;
16820;SDS011;8527;49.740;6.604;2023-01-10T03:44:01;8.50;;;2.58;;
16820;SDS011;8527;49.740;6.604;2023-01-10T03:49:22;8.30;;;2.38;;
16820;SDS011;8527;49.740;6.604;2023-01-10T03:54:25;13.10;;;2.55;;
16820;SDS011;8527;49.740;6.604;2023-01-10T03:59:24;9.68;;;2.47;;
16820;SDS011;8527;49.740;6.604;2023-01-10T04:04:29;5.63;;;2.17;;
16820;SDS011;8527;49.740;6.604;2023-01-10T04:09:28;7.82;;;2.13;;
16820;SDS011;8527;49.740;6.604;2023-01-10T04:14:33;10.40;;;3.28;;
16820;SDS011;8527;49.740;6.604;2023-01-10T04:19:34;23.67;;;4.18;;
16820;SDS011;8527;49.740;6.604;2023-01-10T04:24:33;31.30;;;3.88;;
16820;SDS011;8527;49.740;6.604;2023-01-10T04:29:32;19.55;;;3.38;;
16820;SDS011;8527;49.740;6.604;2023-01-10T04:34:42;21.00;;;4.00;;
16820;SDS011;8527;49.740;6.604;2023-01-10T04:39:48;23.35;;;3.33;;
16820;SDS011;8527;49.740;6.604;2023-01-10T04:44:53;22.33;;;3.85;;
16820;SDS011;8527;49.740;6.604;2023-01-10T04:49:54;16.77;;;3.17;;
16820;SDS011;8527;49.740;6.604;2023-01-10T04:54:55;19.88;;;4.18;;
16820;SDS011;8527;49.740;6.604;2023-01-10T04:59:56;20.23;;;3.60;;
16820;SDS011;8527;49.740;6.604;2023-01-10T05:05:00;28.30;;;4.97;;
16820;SDS011;8527;49.740;6.604;2023-01-10T05:09:58;18.13;;;3.35;;
16820;SDS011;8527;49.740;6.604;2023-01-10T05:15:03;24.90;;;3.53;;
16820;SDS011;8527;49.740;6.604;2023-01-10T05:20:05;22.77;;;3.80;;
16820;SDS011;8527;49.740;6.604;2023-01-10T05:25:04;23.77;;;3.60;;
16820;SDS011;8527;49.740;6.604;2023-01-10T05:30:04;21.85;;;3.83;;
16820;SDS011;8527;49.740;6.604;2023-01-10T05:35:10;18.45;;;4.28;;
16820;SDS011;8527;49.740;6.604;2023-01-10T05:40:11;24.38;;;3.30;;
16820;SDS011;8527;49.740;6.604;2023-01-10T05:45:10;19.58;;;3.30;;
16820;SDS011;8527;49.740;6.604;2023-01-10T05:50:11;22.23;;;3.38;;
16820;SDS011;8527;49.740;6.604;2023-01-10T05:55:12;26.13;;;3.80;;
16820;SDS011;8527;49.740;6.604;2023-01-10T06:00:11;15.40;;;2.80;;
16820;SDS011;8527;49.740;6.604;2023-01-10T06:05:13;19.20;;;3.22;;
16820;SDS011;8527;49.740;6.604;2023-01-10T06:10:11;17.13;;;3.22;;
16820;SDS011;8527;49.740;6.604;2023-01-10T06:15:10;20.60;;;3.40;;
16820;SDS011;8527;49.740;6.604;2023-01-10T06:20:13;14.98;;;3.28;;
16820;SDS011;8527;49.740;6.604;2023-01-10T06:25:14;16.65;;;3.30;;
16820;SDS011;8527;49.740;6.604;2023-01-10T06:30:13;25.50;;;3.45;;
16820;SDS011;8527;49.740;6.604;2023-01-10T06:35:12;22.83;;;3.70;;
16820;SDS011;8527;49.740;6.604;2023-01-10T06:40:20;18.45;;;3.20;;
16820;SDS011;8527;49.740;6.604;2023-01-10T06:45:18;17.13;;;3.40;;
16820;SDS011;8527;49.740;6.604;2023-01-10T06:50:17;24.50;;;4.07;;
16820;SDS011;8527;49.740;6.604;2023-01-10T06:55:15;20.02;;;4.35;;
16820;SDS011;8527;49.740;6.604;2023-01-10T07:00:17;15.90;;;3.58;;
16820;SDS011;8527;49.740;6.604;2023-01-10T07:05:16;16.63;;;3.50;;
16820;SDS011;8527;49.740;6.604;2023-01-10T07:10:16;21.52;;;3.97;;
16820;SDS011;8527;49.740;6.604;2023-01-10T07:15:19;19.30;;;4.82;;
16820;SDS011;8527;49.740;6.604;2023-01-10T07:20:18;22.17;;;3.78;;
16820;SDS011;8527;49.740;6.604;2023-01-10T07:25:17;23.65;;;4.95;;
16820;SDS011;8527;49.740;6.604;2023-01-10T07:30:21;23.02;;;4.32;;
16820;SDS011;8527;49.740;6.604;2023-01-10T07:35:20;26.67;;;4.95;;
16820;SDS011;8527;49.740;6.604;2023-01-10T07:40:19;23.00;;;5.20;;
16820;SDS011;8527;49.740;6.604;2023-01-10T07:45:23;26.45;;;5.05;;
16820;SDS011;8527;49.740;6.604;2023-01-10T07:50:24;28.88;;;4.85;;
16820;SDS011;8527;49.740;6.604;2023-01-10T07:55:23;24.23;;;5.40;;
16820;SDS011;8527;49.740;6.604;2023-01-10T08:00:24;16.30;;;4.53;;
16820;SDS011;8527;49.740;6.604;2023-01-10T08:05:23;23.08;;;4.78;;
16820;SDS011;8527;49.740;6.604;2023-01-10T08:10:21;20.35;;;5.45;;
16820;SDS011;8527;49.740;6.604;2023-01-10T08:15:20;39.22;;;5.25;;
16820;SDS011;8527;49.740;6.604;2023-01-10T08:20:23;23.35;;;5.22;;
16820;SDS011;8527;49.740;6.604;2023-01-10T08:25:24;27.30;;;5.32;;
16820;SDS011;8527;49.740;6.604;2023-01-10T08:30:23;23.63;;;5.93;;
16820;SDS011;8527;49.740;6.604;2023-01-10T08:35:26;18.58;;;4.70;;
16820;SDS011;8527;49.740;6.604;2023-01-10T08:40:25;21.17;;;4.53;;
16820;SDS011;8527;49.740;6.604;2023-01-10T08:45:23;22.60;;;5.35;;
16820;SDS011;8527;49.740;6.604;2023-01-10T08:50:27;27.63;;;4.50;;
16820;SDS011;8527;49.740;6.604;2023-01-10T08:55:26;24.17;;;4.85;;
16820;SDS011;8527;49.740;6.604;2023-01-10T09:00:33;30.52;;;5.20;;
16820;SDS011;8527;49.740;6.604;2023-01-10T09:05:38;27.75;;;4.75;;
16820;SDS011;8527;49.740;6.604;2023-01-10T09:10:43;23.80;;;4.80;;
16820;SDS011;8527;49.740;6.604;2023-01-10T09:15:44;24.10;;;5.28;;
16820;SDS011;8527;49.740;6.604;2023-01-10T09:20:52;25.85;;;4.40;;
16820;SDS011;8527;49.740;6.604;2023-01-10T09:25:52;22.17;;;4.25;;
16820;SDS011;8527;49.740;6.604;2023-01-10T09:30:52;31.38;;;5.10;;
16820;SDS011;8527;49.740;6.604;2023-01-10T09:36:00;23.88;;;4.25;;
16820;SDS011;8527;49.740;6.604;2023-01-10T09:41:07;35.40;;;6.00;;
16820;SDS011;8527;49.740;6.604;2023-01-10T09:46:25;23.52;;;4.03;;
16820;SDS011;8527;49.740;6.604;2023-01-10T09:51:35;18.30;;;4.07;;
16820;SDS011;8527;49.740;6.604;2023-01-10T09:56:36;23.48;;;4.20;;
16820;SDS011;8527;49.740;6.604;2023-01-10T10:01:38;23.05;;;4.00;;
16820;SDS011;8527;49.740;6.604;2023-01-10T10:06:49;21.50;;;4.47;;
16820;SDS011;8527;49.740;6.604;2023-01-10T10:11:54;16.25;;;3.97;;
16820;SDS011;8527;49.740;6.604;2023-01-10T10:17:12;19.35;;;4.13;;
16820;SDS011;8527;49.740;6.604;2023-01-10T10:22:26;24.58;;;5.05;;
16820;SDS011;8527;49.740;6.604;2023-01-10T10:27:38;18.20;;;4.53;;
16820;SDS011;8527;49.740;6.604;2023-01-10T10:38:27;28.10;;;5.60;;
16820;SDS011;8527;49.740;6.604;2023-01-10T10:43:34;25.80;;;5.50;;
16820;SDS011;8527;49.740;6.604;2023-01-10T10:48:38;29.50;;;5.57;;
16820;SDS011;8527;49.740;6.604;2023-01-10T10:53:45;28.58;;;4.75;;
16820;SDS011;8527;49.740;6.604;2023-01-10T10:58:47;25.30;;;4.25;;
16820;SDS011;8527;49.740;6.604;2023-01-10T11:03:54;16.77;;;3.88;;
16820;SDS011;8527;49.740;6.604;2023-01-10T11:09:02;11.93;;;3.47;;
16820;SDS011;8527;49.740;6.604;2023-01-10T11:14:02;14.05;;;3.72;;
16820;SDS011;8527;49.740;6.604;2023-01-10T11:19:15;20.58;;;5.57;;
16820;SDS011;8527;49.740;6.604;2023-01-10T11:29:45;20.55;;;4.63;;
16820;SDS011;8527;49.740;6.604;2023-01-10T11:35:02;25.83;;;5.47;;
16820;SDS011;8527;49.740;6.604;2023-01-10T11:40:23;26.65;;;4.72;;
16820;SDS011;8527;49.740;6.604;2023-01-10T11:45:37;22.83;;;4.60;;
16820;SDS011;8527;49.740;6.604;2023-01-10T11:50:40;34.72;;;5.53;;
16820;SDS011;8527;49.740;6.604;2023-01-10T11:55:44;28.60;;;5.00;;
16820;SDS011;8527;49.740;6.604;2023-01-10T12:00:48;21.92;;;4.60;;
16820;SDS011;8527;49.740;6.604;2023-01-10T12:05:52;20.75;;;4.63;;
16820;SDS011;8527;49.740;6.604;2023-01-10T12:10:58;23.92;;;5.00;;
16820;SDS011;8527;49.740;6.604;2023-01-10T12:21:18;33.28;;;4.65;;
16820;SDS011;8527;49.740;6.604;2023-01-10T12:26:23;26.92;;;4.82;;
16820;SDS011;8527;49.740;6.604;2023-01-10T12:31:30;18.83;;;4.25;;
16820;SDS011;8527;49.740;6.604;2023-01-10T12:36:36;24.48;;;4.57;;
16820;SDS011;8527;49.740;6.604;2023-01-10T12:41:46;26.50;;;3.50;;
16820;SDS011;8527;49.740;6.604;2023-01-10T12:47:08;26.25;;;4.38;;
16820;SDS011;8527;49.740;6.604;2023-01-10T12:52:17;31.17;;;4.50;;
16820;SDS011;8527;49.740;6.604;2023-01-10T12:57:25;18.38;;;3.78;;
16820;SDS011;8527;49.740;6.604;2023-01-10T13:02:36;18.73;;;3.70;;
16820;SDS011;8527;49.740;6.604;2023-01-10T13:07:37;21.25;;;4.28;;
16820;SDS011;8527;49.740;6.604;2023-01-10T13:12:39;25.67;;;5.70;;
16820;SDS011;8527;49.740;6.604;2023-01-10T13:17:48;24.92;;;3.92;;
16820;SDS011;8527;49.740;6.604;2023-01-10T13:22:52;19.35;;;3.83;;
16820;SDS011;8527;49.740;6.604;2023-01-10T13:28:01;23.33;;;4.18;;
16820;SDS011;8527;49.740;6.604;2023-01-10T13:33:05;26.75;;;4.60;;
16820;SDS011;8527;49.740;6.604;2023-01-10T13:38:17;17.25;;;3.35;;
16820;SDS011;8527;49.740;6.604;2023-01-10T13:43:36;21.33;;;3.45;;
16820;SDS011;8527;49.740;6.604;2023-01-10T13:54:24;23.70;;;4.70;;
16820;SDS011;8527;49.740;6.604;2023-01-10T14:05:16;19.15;;;4.00;;
16820;SDS011;8527;49.740;6.604;2023-01-10T14:10:20;18.55;;;3.40;;
16820;SDS011;8527;49.740;6.604;2023-01-10T14:15:24;23.08;;;4.03;;
16820;SDS011;8527;49.740;6.604;2023-01-10T14:20:29;22.02;;;4.07;;
16820;SDS011;8527;49.740;6.604;2023-01-10T14:25:29;15.38;;;3.20;;
16820;SDS011;8527;49.740;6.604;2023-01-10T14:30:31;18.42;;;4.03;;
16820;SDS011;8527;49.740;6.604;2023-01-10T14:35:38;21.83;;;3.70;;
16820;SDS011;8527;49.740;6.604;2023-01-10T14:40:44;22.38;;;4.15;;
16820;SDS011;8527;49.740;6.604;2023-01-10T14:45:50;18.67;;;3.20;;
16820;SDS011;8527;49.740;6.604;2023-01-10T14:51:13;20.08;;;3.90;;
16820;SDS011;8527;49.740;6.604;2023-01-10T14:56:16;23.98;;;3.33;;
16820;SDS011;8527;49.740;6.604;2023-01-10T15:01:17;21.50;;;3.85;;
16820;SDS011;8527;49.740;6.604;2023-01-10T15:06:27;20.88;;;4.10;;
16820;SDS011;8527;49.740;6.604;2023-01-10T15:11:26;26.10;;;3.45;;
16820;SDS011;8527;49.740;6.604;2023-01-10T15:16:26;16.30;;;3.28;;
16820;SDS011;8527;49.740;6.604;2023-01-10T15:21:28;24.35;;;3.95;;
16820;SDS011;8527;49.740;6.604;2023-01-10T15:26:29;21.10;;;3.67;;
16820;SDS011;8527;49.740;6.604;2023-01-10T15:31:36;15.43;;;3.50;;
16820;SDS011;8527;49.740;6.604;2023-01-10T15:36:39;26.60;;;4.07;;
16820;SDS011;8527;49.740;6.604;2023-01-10T15:41:41;17.13;;;4.40;;
16820;SDS011;8527;49.740;6.604;2023-01-10T15:46:52;19.00;;;3.45;;
16820;SDS011;8527;49.740;6.604;2023-01-10T15:51:54;20.08;;;3.33;;
16820;SDS011;8527;49.740;6.604;2023-01-10T15:56:52;23.77;;;3.08;;
16820;SDS011;8527;49.740;6.604;2023-01-10T16:01:53;12.52;;;3.17;;
16820;SDS011;8527;49.740;6.604;2023-01-10T16:07:05;23.58;;;3.83;;
16820;SDS011;8527;49.740;6.604;2023-01-10T16:12:31;20.65;;;3.53;;
16820;SDS011;8527;49.740;6.604;2023-01-10T16:17:44;27.17;;;4.22;;
16820;SDS011;8527;49.740;6.604;2023-01-10T16:22:46;18.23;;;2.92;;
16820;SDS011;8527;49.740;6.604;2023-01-10T16:27:50;20.67;;;4.28;;
16820;SDS011;8527;49.740;6.604;2023-01-10T16:32:50;22.73;;;3.58;;
16820;SDS011;8527;49.740;6.604;2023-01-10T16:37:58;22.67;;;4.20;;
16820;SDS011;8527;49.740;6.604;2023-01-10T16:42:57;22.65;;;3.90;;
16820;SDS011;8527;49.740;6.604;2023-01-10T16:48:08;21.13;;;3.97;;
16820;SDS011;8527;49.740;6.604;2023-01-10T16:53:11;27.50;;;3.80;;
16820;SDS011;8527;49.740;6.604;2023-01-10T16:58:11;16.05;;;3.35;;
16820;SDS011;8527;49.740;6.604;2023-01-10T17:03:13;15.52;;;3.30;;
16820;SDS011;8527;49.740;6.604;2023-01-10T17:08:23;21.38;;;4.05;;
16820;SDS011;8527;49.740;6.604;2023-01-10T17:13:22;18.33;;;3.78;;
16820;SDS011;8527;49.740;6.604;2023-01-10T17:18:24;19.55;;;3.30;;
16820;SDS011;8527;49.740;6.604;2023-01-10T17:23:25;20.42;;;4.40;;
16820;SDS011;8527;49.740;6.604;2023-01-10T17:28:26;19.45;;;4.28;;
16820;SDS011;8527;49.740;6.604;2023-01-10T17:33:25;11.60;;;3.28;;
16820;SDS011;8527;49.740;6.604;2023-01-10T17:38:27;23.85;;;3.40;;
16820;SDS011;8527;49.740;6.604;2023-01-10T17:43:26;17.30;;;3.28;;
16820;SDS011;8527;49.740;6.604;2023-01-10T17:48:25;28.08;;;4.85;;
16820;SDS011;8527;49.740;6.604;2023-01-10T17:53:24;17.35;;;3.75;;
16820;SDS011;8527;49.740;6.604;2023-01-10T17:58:27;15.77;;;3.08;;
16820;SDS011;8527;49.740;6.604;2023-01-10T18:03:26;15.20;;;3.30;;
16820;SDS011;8527;49.740;6.604;2023-01-10T18:08:24;17.88;;;3.90;;
16820;SDS011;8527;49.740;6.604;2023-01-10T18:13:23;13.80;;;3.30;;
16820;SDS011;8527;49.740;6.604;2023-01-10T18:18:28;18.17;;;4.07;;
16820;SDS011;8527;49.740;6.604;2023-01-10T18:23:27;14.75;;;3.42;;
16820;SDS011;8527;49.740;6.604;2023-01-10T18:28:28;11.77;;;3.50;;
16820;SDS011;8527;49.740;6.604;2023-01-10T18:33:32;17.25;;;4.40;;
16820;SDS011;8527;49.740;6.604;2023-01-10T18:38:31;16.13;;;4.10;;
16820;SDS011;8527;49.740;6.604;2023-01-10T18:43:30;14.52;;;5.25;;
16820;SDS011;8527;49.740;6.604;2023-01-10T18:48:29;15.23;;;4.28;;
16820;SDS011;8527;49.740;6.604;2023-01-10T18:53:30;14.68;;;4.38;;
16820;SDS011;8527;49.740;6.604;2023-01-10T18:58:36;13.82;;;4.00;;
16820;SDS011;8527;49.740;6.604;2023-01-10T19:03:38;12.20;;;4.10;;
16820;SDS011;8527;49.740;6.604;2023-01-10T19:08:37;8.00;;;3.40;;
16820;SDS011;8527;49.740;6.604;2023-01-10T19:13:38;7.97;;;2.80;;
16820;SDS011;8527;49.740;6.604;2023-01-10T19:18:42;8.13;;;3.28;;
16820;SDS011;8527;49.740;6.604;2023-01-10T19:23:45;9.68;;;2.88;;
16820;SDS011;8527;49.740;6.604;2023-01-10T19:28:45;5.90;;;2.38;;
16820;SDS011;8527;49.740;6.604;2023-01-10T19:33:47;7.35;;;3.45;;
16820;SDS011;8527;49.740;6.604;2023-01-10T19:38:51;7.95;;;3.08;;
16820;SDS011;8527;49.740;6.604;2023-01-10T19:43:54;6.93;;;2.38;;
16820;SDS011;8527;49.740;6.604;2023-01-10T19:48:58;7.35;;;3.17;;
16820;SDS011;8527;49.740;6.604;2023-01-10T19:54:01;6.13;;;2.42;;
16820;SDS011;8527;49.740;6.604;2023-01-10T19:59:01;4.85;;;2.00;;
16820;SDS011;8527;49.740;6.604;2023-01-10T20:04:04;7.10;;;2.80;;
16820;SDS011;8527;49.740;6.604;2023-01-10T20:09:05;3.53;;;2.05;;
16820;SDS011;8527;49.740;6.604;2023-01-10T20:14:05;4.63;;;2.30;;
16820;SDS011;8527;49.740;6.604;2023-01-10T20:19:10;5.03;;;2.58;;
16820;SDS011;8527;49.740;6.604;2023-01-10T20:24:12;4.75;;;2.30;;
16820;SDS011;8527;49.740;6.604;2023-01-10T20:29:12;6.38;;;2.00;;
16820;SDS011;8527;49.740;6.604;2023-01-10T20:34:13;5.80;;;2.05;;
16820;SDS011;8527;49.740;6.604;2023-01-10T20:39:11;2.55;;;2.10;;
16820;SDS011;8527;49.740;6.604;2023-01-10T20:44:10;6.50;;;2.13;;
16820;SDS011;8527;49.740;6.604;2023-01-10T20:49:09;3.15;;;2.17;;
16820;SDS011;8527;49.740;6.604;2023-01-10T20:54:10;4.25;;;1.98;;
16820;SDS011;8527;49.740;6.604;2023-01-10T20:59:09;3.53;;;1.60;;
16820;SDS011;8527;49.740;6.604;2023-01-10T21:04:08;2.47;;;2.00;;
16820;SDS011;8527;49.740;6.604;2023-01-10T21:09:06;3.97;;;2.17;;
16820;SDS011;8527;49.740;6.604;2023-01-10T21:14:07;6.45;;;2.50;;
16820;SDS011;8527;49.740;6.604;2023-01-10T21:19:07;4.00;;;1.63;;
16820;SDS011;8527;49.740;6.604;2023-01-10T21:24:08;3.97;;;1.70;;
16820;SDS011;8527;49.740;6.604;2023-01-10T21:29:12;2.78;;;1.55;;
16820;SDS011;8527;49.740;6.604;2023-01-10T21:34:10;4.05;;;2.20;;
16820;SDS011;8527;49.740;6.604;2023-01-10T21:39:09;3.03;;;1.63;;
16820;SDS011;8527;49.740;6.604;2023-01-10T21:44:07;4.35;;;2.05;;
16820;SDS011;8527;49.740;6.604;2023-01-10T21:49:11;8.20;;;2.55;;
16820;SDS011;8527;49.740;6.604;2023-01-10T21:54:09;3.70;;;1.25;;
16820;SDS011;8527;49.740;6.604;2023-01-10T21:59:10;4.20;;;1.58;;
16820;SDS011;8527;49.740;6.604;2023-01-10T22:04:11;4.00;;;1.63;;
16820;SDS011;8527;49.740;6.604;2023-01-10T22:09:13;3.50;;;1.75;;
16820;SDS011;8527;49.740;6.604;2023-01-10T22:14:11;4.25;;;1.88;;
16820;SDS011;8527;49.740;6.604;2023-01-10T22:19:12;4.45;;;1.60;;
16820;SDS011;8527;49.740;6.604;2023-01-10T22:24:11;6.03;;;2.60;;
16820;SDS011;8527;49.740;6.604;2023-01-10T22:29:09;5.50;;;1.65;;
16820;SDS011;8527;49.740;6.604;2023-01-10T22:34:09;3.70;;;2.17;;
16820;SDS011;8527;49.740;6.604;2023-01-10T22:39:13;4.57;;;2.25;;
16820;SDS011;8527;49.740;6.604;2023-01-10T22:44:15;4.25;;;2.17;;
16820;SDS011;8527;49.740;6.604;2023-01-10T22:49:19;5.95;;;2.50;;
16820;SDS011;8527;49.740;6.604;2023-01-10T22:54:18;5.93;;;2.90;;
16820;SDS011;8527;49.740;6.604;2023-01-10T22:59:20;7.55;;;2.90;;
16820;SDS011;8527;49.740;6.604;2023-01-10T23:04:21;7.18;;;2.83;;
16820;SDS011;8527;49.740;6.604;2023-01-10T23:09:22;11.40;;;3.60;;
16820;SDS011;8527;49.740;6.604;2023-01-10T23:14:20;12.70;;;4.10;;
16820;SDS011;8527;49.740;6.604;2023-01-10T23:19:21;10.82;;;3.08;;
16820;SDS011;8527;49.740;6.604;2023-01-10T23:24:20;5.53;;;3.25;;
16820;SDS011;8527;49.740;6.604;2023-01-10T23:29:24;9.63;;;3.40;;
16820;SDS011;8527;49.740;6.604;2023-01-10T23:34:25;8.85;;;3.20;;
16820;SDS011;8527;49.740;6.604;2023-01-10T23:39:23;6.55;;;2.72;;
16820;SDS011;8527;49.740;6.604;2023-01-10T23:44:24;8.75;;;3.20;;
16820;SDS011;8527;49.740;6.604;2023-01-10T23:49:28;9.65;;;3.33;;
16820;SDS011;8527;49.740;6.604;2023-01-10T23:54:28;7.43;;;2.95;;
16820;SDS011;8527;49.740;6.604;2023-01-10T23:59:29;4.72;;;2.28;;
